Main page
Satellite images Climate Cyclones Lightning AirportsFAQ Languages Contact Newsletter About
Weather : Europe Africa North America South America Asia Australia-Oceania Others

ho-chi-minh-vn, Ho Chi Minh City, Tan Son Nhat International Airport

latitude: , longitude: Vietnam, elevation: 10-49N m


METAR: VVTS 101100Z 26006KT 9999 FEW017 SCT050 29/25 Q1006 NOSIG